Time;durP1;ratioP1;P1;durP2;ratioP2;P2;SDS_P1;SDS_P2;PMS_P1;PMS_P2;Temp;Humidity;BMP_temperature;BMP_pressure;BME280_temperature;BME280_humidity;BME280_pressure;Samples;Min_cycle;Max_cycle;Signal;HPM_P1;HPM_P2
2023/10/08 00:01:55;;;;;;;4.57;2.33;;;21.70;99.90;;;;;;5012883;28;20925;-75
2023/10/08 00:04:21;;;;;;;4.47;2.60;;;21.70;99.90;;;;;;5011750;28;20600;-77
2023/10/08 00:06:47;;;;;;;3.10;1.93;;;21.70;99.90;;;;;;5011625;28;20679;-76
2023/10/08 00:09:14;;;;;;;4.70;2.80;;;21.60;99.90;;;;;;5011678;28;20616;-77
2023/10/08 00:11:40;;;;;;;4.60;3.20;;;21.70;99.90;;;;;;5012782;28;20186;-77
2023/10/08 00:14:10;;;;;;;4.40;2.50;;;21.60;99.90;;;;;;5016370;28;21174;-76
2023/10/08 00:16:39;;;;;;;5.70;2.60;;;21.60;99.90;;;;;;5011192;28;20637;-76
2023/10/08 00:19:11;;;;;;;4.90;2.53;;;21.50;99.90;;;;;;5012725;28;20661;-77
2023/10/08 00:21:38;;;;;;;3.93;2.23;;;21.50;99.90;;;;;;5012454;28;20581;-77
2023/10/08 00:24:06;;;;;;;2.73;1.80;;;21.50;99.90;;;;;;5012535;28;20665;-77
2023/10/08 00:26:35;;;;;;;5.60;2.60;;;21.40;99.90;;;;;;5011016;28;20624;-77
2023/10/08 00:32:11;;;;;;;7.60;2.30;;;21.30;99.90;;;;;;4952191;28;20933;-77
2023/10/08 00:34:41;;;;;;;4.93;2.37;;;21.20;99.90;;;;;;5010894;28;20635;-76
2023/10/08 00:37:09;;;;;;;9.57;2.87;;;21.20;99.90;;;;;;5011111;28;20617;-77
2023/10/08 00:39:37;;;;;;;5.87;2.77;;;21.10;99.90;;;;;;5020930;28;20564;-76
2023/10/08 00:42:07;;;;;;;6.37;2.10;;;21.10;99.90;;;;;;5030383;28;20668;-77
2023/10/08 00:44:47;;;;;;;5.20;2.10;;;21.00;99.90;;;;;;5015010;28;20569;-77
2023/10/08 00:47:16;;;;;;;5.60;2.80;;;21.00;99.90;;;;;;5010759;28;20612;-76
2023/10/08 00:57:29;;;;;;;3.63;2.50;;;20.90;99.90;;;;;;4971960;28;21177;-76
2023/10/08 00:59:58;;;;;;;4.93;2.50;;;20.80;99.90;;;;;;5010408;28;20581;-76
2023/10/08 01:02:46;;;;;;;4.57;1.90;;;20.80;99.90;;;;;;4994581;28;20589;-77
2023/10/08 01:05:14;;;;;;;3.03;1.87;;;20.80;99.90;;;;;;4991805;28;21214;-76
2023/10/08 01:07:48;;;;;;;5.13;2.20;;;20.80;99.90;;;;;;4992036;28;20578;-77
2023/10/08 01:10:20;;;;;;;4.27;2.20;;;20.70;99.90;;;;;;5010319;28;20672;-77
2023/10/08 01:13:05;;;;;;;3.20;2.07;;;20.70;99.90;;;;;;5010202;28;20949;-76
2023/10/08 01:15:35;;;;;;;5.70;2.10;;;20.70;99.90;;;;;;4993558;28;20644;-76
2023/10/08 01:18:07;;;;;;;6.70;2.33;;;20.70;99.90;;;;;;4993642;28;21107;-76
2023/10/08 01:22:59;;;;;;;3.87;2.10;;;20.70;99.90;;;;;;5010199;28;21208;-77
2023/10/08 01:25:29;;;;;;;4.37;2.40;;;20.60;99.90;;;;;;5010100;28;20288;-77
2023/10/08 01:28:01;;;;;;;3.47;1.87;;;20.60;99.90;;;;;;5013294;28;20578;-77
2023/10/08 01:30:34;;;;;;;5.23;2.40;;;20.60;99.90;;;;;;4993733;28;20580;-78
2023/10/08 01:33:02;;;;;;;3.30;2.00;;;20.50;99.90;;;;;;4990431;28;20676;-77
2023/10/08 01:35:31;;;;;;;6.40;2.60;;;20.40;99.90;;;;;;4990282;28;20641;-76
2023/10/08 01:37:59;;;;;;;6.20;2.73;;;20.40;99.90;;;;;;4989981;28;20624;-76
2023/10/08 01:40:26;;;;;;;4.30;2.47;;;20.30;99.90;;;;;;4993416;28;20661;-76
2023/10/08 01:42:52;;;;;;;5.90;2.40;;;20.20;99.90;;;;;;4993626;28;20569;-76
2023/10/08 01:45:18;;;;;;;3.07;2.00;;;20.20;99.90;;;;;;4993474;28;20573;-76
2023/10/08 01:47:44;;;;;;;6.53;2.77;;;20.20;99.90;;;;;;4993646;28;20582;-76
2023/10/08 01:50:21;;;;;;;4.93;2.57;;;20.10;99.90;;;;;;5010094;28;20596;-77
2023/10/08 01:52:47;;;;;;;3.80;1.93;;;20.00;99.90;;;;;;4993641;28;20621;-77
2023/10/08 01:55:17;;;;;;;3.73;2.00;;;20.00;99.90;;;;;;5009856;28;20644;-77
2023/10/08 01:57:47;;;;;;;7.50;2.40;;;20.00;99.90;;;;;;5011239;28;20585;-76
2023/10/08 02:00:19;;;;;;;4.90;2.50;;;19.90;99.90;;;;;;4993802;28;20582;-76
2023/10/08 02:02:47;;;;;;;5.30;2.87;;;19.90;99.90;;;;;;4978743;28;20573;-76
2023/10/08 02:05:15;;;;;;;5.57;2.03;;;19.80;99.90;;;;;;4997025;28;20593;-76
2023/10/08 02:07:44;;;;;;;4.60;2.20;;;19.70;99.90;;;;;;5010018;28;20589;-77
2023/10/08 02:10:10;;;;;;;3.60;1.87;;;19.70;99.90;;;;;;5009810;28;20990;-74
2023/10/08 02:12:37;;;;;;;6.53;3.20;;;19.60;99.90;;;;;;5025928;28;20675;-76
2023/10/08 02:15:06;;;;;;;5.87;2.70;;;19.60;99.90;;;;;;5012801;28;20636;-76
2023/10/08 02:17:32;;;;;;;4.70;2.80;;;19.50;99.90;;;;;;5029600;28;20995;-75
2023/10/08 02:19:58;;;;;;;7.80;2.40;;;19.50;99.90;;;;;;5029393;28;20691;-76
2023/10/08 02:22:24;;;;;;;6.20;3.00;;;19.50;99.90;;;;;;5029267;28;20664;-77
2023/10/08 02:24:50;;;;;;;4.33;2.70;;;19.40;99.90;;;;;;5029632;28;20173;-77
2023/10/08 02:27:16;;;;;;;4.77;2.60;;;19.40;99.90;;;;;;5029197;28;20613;-77
2023/10/08 02:29:42;;;;;;;4.47;2.40;;;19.30;99.90;;;;;;5029206;28;20583;-77
2023/10/08 02:32:09;;;;;;;6.87;2.83;;;19.30;99.90;;;;;;5030499;28;20568;-77
2023/10/08 02:34:35;;;;;;;5.03;2.70;;;19.30;99.90;;;;;;5029234;28;20289;-77
2023/10/08 02:37:03;;;;;;;8.07;2.37;;;19.20;99.90;;;;;;5012781;28;20659;-76
2023/10/08 02:39:32;;;;;;;5.30;2.27;;;19.20;99.90;;;;;;5033137;28;20580;-76
2023/10/08 02:42:01;;;;;;;3.47;2.13;;;19.20;99.90;;;;;;5035555;28;20662;-77
2023/10/08 02:44:27;;;;;;;9.37;2.80;;;19.20;99.90;;;;;;5032550;28;20637;-77
2023/10/08 02:46:54;;;;;;;3.83;2.13;;;19.10;99.90;;;;;;5032532;28;21091;-77
2023/10/08 02:49:25;;;;;;;5.17;2.40;;;19.10;99.90;;;;;;5016035;28;20661;-75
2023/10/08 02:51:53;;;;;;;4.40;1.73;;;19.10;99.90;;;;;;5032530;28;20588;-76
2023/10/08 02:54:23;;;;;;;5.83;2.57;;;19.10;99.90;;;;;;5016145;28;20632;-77
2023/10/08 02:56:57;;;;;;;5.07;2.53;;;19.10;99.90;;;;;;5032579;28;20596;-76
2023/10/08 02:59:24;;;;;;;5.37;2.90;;;19.20;99.90;;;;;;4999711;28;20584;-77
2023/10/08 03:01:52;;;;;;;4.20;2.53;;;19.20;99.90;;;;;;5014816;28;20695;-77
2023/10/08 03:04:18;;;;;;;5.03;2.60;;;19.20;99.90;;;;;;5013446;28;20593;-77
2023/10/08 03:06:54;;;;;;;5.30;2.40;;;19.20;99.90;;;;;;5014068;28;20612;-77
2023/10/08 03:09:23;;;;;;;6.23;2.60;;;19.30;99.90;;;;;;5012645;28;21136;-77
2023/10/08 03:11:50;;;;;;;5.30;2.50;;;19.30;99.90;;;;;;4996086;28;20647;-77
2023/10/08 03:14:26;;;;;;;3.37;2.00;;;19.30;99.90;;;;;;5013528;28;20625;-76
2023/10/08 03:16:54;;;;;;;3.80;1.77;;;19.30;99.90;;;;;;4995987;28;20616;-76
2023/10/08 03:19:22;;;;;;;4.50;2.90;;;19.30;99.90;;;;;;5014682;28;20573;-76
2023/10/08 03:21:50;;;;;;;6.07;2.70;;;19.30;99.90;;;;;;5012215;28;20692;-76
2023/10/08 03:27:07;;;;;;;3.53;2.20;;;19.40;99.90;;;;;;5012123;28;20723;-77
2023/10/08 03:29:40;;;;;;;7.60;2.43;;;19.40;99.90;;;;;;5028592;28;20581;-77
2023/10/08 03:32:15;;;;;;;6.63;2.83;;;19.40;99.90;;;;;;4995743;28;20588;-77
2023/10/08 03:34:49;;;;;;;6.73;3.13;;;19.40;99.90;;;;;;4998637;28;20625;-77
2023/10/08 03:37:29;;;;;;;7.03;2.90;;;19.40;99.90;;;;;;5016656;28;21000;-77
2023/10/08 03:42:49;;;;;;;4.60;2.20;;;19.40;99.90;;;;;;4975966;28;20679;-77
2023/10/08 03:45:22;;;;;;;4.70;2.20;;;19.40;99.90;;;;;;5011752;28;20584;-76
2023/10/08 03:48:03;;;;;;;7.90;3.80;;;19.30;99.90;;;;;;5013022;28;20910;-76
2023/10/08 03:50:41;;;;;;;4.83;2.37;;;19.30;99.90;;;;;;4994405;28;20592;-76
2023/10/08 03:53:13;;;;;;;5.27;2.40;;;19.30;99.90;;;;;;5011889;28;21213;-76
2023/10/08 03:55:42;;;;;;;6.87;3.13;;;19.30;99.90;;;;;;5015905;28;20668;-76
2023/10/08 03:58:19;;;;;;;5.70;2.30;;;19.30;99.90;;;;;;5012801;28;20577;-76
2023/10/08 04:00:45;;;;;;;5.63;2.77;;;19.30;99.90;;;;;;5011461;28;20735;-76
2023/10/08 04:03:11;;;;;;;5.03;2.83;;;19.40;99.90;;;;;;5011503;28;20643;-78
2023/10/08 04:06:14;;;;;;;4.53;2.37;;;19.30;99.90;;;;;;5010847;28;20675;-76
2023/10/08 04:08:42;;;;;;;5.07;2.43;;;19.40;99.90;;;;;;5030909;28;20585;-76
2023/10/08 04:11:35;;;;;;;5.70;2.10;;;19.40;99.90;;;;;;5019686;28;20640;-76
2023/10/08 04:14:02;;;;;;;5.00;2.63;;;19.40;99.90;;;;;;4994916;28;20636;-76
2023/10/08 04:16:37;;;;;;;4.40;2.20;;;19.40;99.90;;;;;;5011353;28;20683;-76
2023/10/08 04:19:03;;;;;;;6.30;2.43;;;19.40;99.90;;;;;;5012540;28;20924;-76
2023/10/08 04:21:29;;;;;;;4.47;2.50;;;19.40;99.90;;;;;;5012536;28;20919;-76
2023/10/08 04:23:57;;;;;;;4.90;2.67;;;19.40;99.90;;;;;;5011147;28;20681;-76
2023/10/08 04:26:23;;;;;;;7.13;2.33;;;19.40;99.90;;;;;;5011014;28;20671;-76
2023/10/08 04:29:02;;;;;;;6.53;2.87;;;19.40;99.90;;;;;;4994777;28;20593;-75
2023/10/08 04:31:46;;;;;;;4.60;2.00;;;19.40;99.90;;;;;;5012311;28;20681;-76
2023/10/08 04:34:15;;;;;;;4.73;2.50;;;19.30;99.90;;;;;;5012338;28;20639;-77
2023/10/08 04:36:45;;;;;;;4.70;2.20;;;19.30;99.90;;;;;;5010753;28;20629;-77
2023/10/08 04:39:21;;;;;;;4.60;1.90;;;19.30;99.90;;;;;;5010770;28;20662;-76
2023/10/08 04:41:54;;;;;;;6.97;2.57;;;19.30;99.90;;;;;;5010894;28;20577;-77
2023/10/08 04:44:21;;;;;;;5.67;2.50;;;19.30;99.90;;;;;;4994421;28;20660;-77
2023/10/08 04:46:51;;;;;;;4.53;2.27;;;19.20;99.90;;;;;;5010732;28;20613;-77
2023/10/08 04:49:30;;;;;;;5.20;2.47;;;19.20;99.90;;;;;;5012048;28;20666;-77
2023/10/08 04:52:14;;;;;;;8.20;3.03;;;19.10;99.90;;;;;;5010689;28;20588;-77
2023/10/08 04:54:41;;;;;;;7.07;2.87;;;19.10;99.90;;;;;;5010535;28;20636;-76
2023/10/08 04:57:15;;;;;;;5.47;2.80;;;19.10;99.90;;;;;;5011846;28;20605;-76
2023/10/08 04:59:46;;;;;;;4.90;2.20;;;19.10;99.90;;;;;;5011823;28;20561;-76
2023/10/08 05:07:21;;;;;;;6.50;2.43;;;19.00;99.90;;;;;;5010469;28;20632;-75
2023/10/08 05:12:34;;;;;;;5.80;2.57;;;18.90;99.90;;;;;;5010254;28;20580;-75
2023/10/08 05:15:21;;;;;;;5.07;2.53;;;19.00;99.90;;;;;;4993754;28;20633;-75
2023/10/08 05:20:40;;;;;;;6.13;2.40;;;18.90;99.90;;;;;;5010214;28;20578;-75
2023/10/08 05:26:08;;;;;;;5.40;3.03;;;18.90;99.90;;;;;;5010108;28;20708;-76
2023/10/08 05:28:36;;;;;;;5.20;2.67;;;18.80;99.90;;;;;;5009949;28;20581;-77
2023/10/08 05:31:31;;;;;;;5.33;2.60;;;18.80;99.90;;;;;;5010000;28;20589;-76
2023/10/08 05:37:10;;;;;;;3.97;2.30;;;18.70;99.90;;;;;;5009970;28;20663;-76
2023/10/08 05:39:41;;;;;;;5.33;2.63;;;18.70;99.90;;;;;;5009897;28;20577;-76
2023/10/08 05:42:20;;;;;;;6.57;2.77;;;18.60;99.90;;;;;;4993687;28;20616;-77
2023/10/08 05:44:50;;;;;;;5.73;2.50;;;18.60;99.90;;;;;;5009776;28;20589;-77
2023/10/08 05:52:53;;;;;;;5.00;2.60;;;18.40;99.90;;;;;;5010218;28;20675;-76
2023/10/08 05:55:25;;;;;;;5.60;2.73;;;18.40;99.90;;;;;;4990366;28;21078;-76
2023/10/08 06:03:32;;;;;;;5.00;2.23;;;18.40;99.90;;;;;;5014875;28;20901;-77
2023/10/08 06:06:22;;;;;;;5.63;2.53;;;18.40;99.90;;;;;;5019863;28;20608;-76
2023/10/08 06:08:51;;;;;;;7.13;3.00;;;18.30;99.90;;;;;;5009833;28;20569;-76
2023/10/08 06:14:13;;;;;;;5.43;2.20;;;18.40;99.90;;;;;;5023347;28;20623;-76
2023/10/08 06:16:44;;;;;;;5.00;2.10;;;18.40;99.90;;;;;;5029938;28;20663;-76
2023/10/08 06:19:21;;;;;;;8.20;2.50;;;18.40;99.90;;;;;;5013815;28;20609;-76
2023/10/08 06:21:47;;;;;;;4.10;2.50;;;18.40;99.90;;;;;;5017871;28;20577;-76
2023/10/08 06:24:16;;;;;;;5.43;2.53;;;18.50;99.90;;;;;;5018835;28;20583;-76
2023/10/08 06:26:42;;;;;;;4.10;1.93;;;18.50;99.90;;;;;;5014125;28;20213;-77
2023/10/08 06:29:18;;;;;;;5.53;3.07;;;18.50;99.90;;;;;;4997742;28;20601;-77
2023/10/08 06:31:50;;;;;;;5.70;2.73;;;18.60;99.90;;;;;;5011823;28;20937;-76
2023/10/08 06:34:20;;;;;;;5.97;2.10;;;18.60;99.90;;;;;;5006105;28;20720;-77
2023/10/08 06:36:48;;;;;;;3.93;2.67;;;18.70;99.90;;;;;;5016456;28;20617;-75
2023/10/08 06:39:47;;;;;;;4.77;2.07;;;18.70;99.90;;;;;;5016366;28;20680;-76
2023/10/08 06:42:17;;;;;;;10.03;2.87;;;18.80;99.90;;;;;;5013525;28;20588;-76
2023/10/08 06:44:46;;;;;;;4.40;2.30;;;18.90;99.90;;;;;;5014324;28;20634;-77
2023/10/08 06:47:15;;;;;;;5.90;2.30;;;18.90;99.90;;;;;;4996506;28;21325;-76
2023/10/08 06:49:43;;;;;;;5.47;2.30;;;19.00;99.90;;;;;;5014449;28;21167;-76
2023/10/08 06:52:11;;;;;;;6.53;3.60;;;19.10;99.90;;;;;;5012993;28;20685;-76
2023/10/08 06:54:37;;;;;;;5.50;2.60;;;19.10;99.90;;;;;;5012873;28;20617;-76
2023/10/08 06:57:02;;;;;;;7.40;3.03;;;19.20;99.90;;;;;;5012873;28;20616;-77
2023/10/08 06:59:31;;;;;;;5.77;2.57;;;19.30;99.90;;;;;;5015086;28;20605;-77
2023/10/08 07:01:58;;;;;;;5.67;2.40;;;19.30;99.90;;;;;;4996115;28;20577;-76
2023/10/08 07:04:24;;;;;;;5.73;2.87;;;19.40;99.90;;;;;;5012824;28;20570;-76
2023/10/08 07:06:54;;;;;;;4.13;2.60;;;19.50;99.90;;;;;;4994237;28;20668;-76
2023/10/08 07:09:23;;;;;;;4.10;2.60;;;19.50;99.90;;;;;;4996244;28;20628;-78
2023/10/08 07:11:56;;;;;;;6.73;2.80;;;19.50;99.90;;;;;;4996521;28;21052;-76
2023/10/08 07:14:26;;;;;;;6.20;2.57;;;19.60;99.90;;;;;;5012576;28;20659;-76
2023/10/08 07:16:54;;;;;;;4.20;2.20;;;19.70;99.90;;;;;;5012348;28;20744;-76
2023/10/08 07:19:23;;;;;;;5.67;3.10;;;19.70;99.90;;;;;;5014060;28;20593;-77
2023/10/08 07:21:53;;;;;;;7.47;3.30;;;19.80;99.90;;;;;;5013619;28;20580;-77
2023/10/08 07:24:21;;;;;;;6.57;3.13;;;19.90;99.90;;;;;;5013222;28;20585;-76
2023/10/08 07:26:49;;;;;;;4.43;2.53;;;19.90;99.90;;;;;;5012886;28;20704;-77
2023/10/08 07:29:17;;;;;;;5.87;3.17;;;20.00;99.90;;;;;;5013493;28;20927;-76
2023/10/08 07:31:48;;;;;;;5.03;2.73;;;20.10;99.90;;;;;;5012146;28;20936;-76
2023/10/08 07:34:16;;;;;;;5.60;2.33;;;20.20;99.90;;;;;;4996019;28;20644;-75
2023/10/08 07:36:47;;;;;;;6.37;2.30;;;20.20;99.90;;;;;;5016794;28;20609;-75
2023/10/08 07:41:55;;;;;;;6.67;2.70;;;20.50;99.90;;;;;;5027505;28;20714;-76
2023/10/08 07:44:21;;;;;;;7.03;2.20;;;20.60;99.90;;;;;;5029414;28;20794;-77
2023/10/08 07:46:51;;;;;;;4.13;2.67;;;20.80;99.90;;;;;;5031259;28;20624;-76
2023/10/08 07:49:18;;;;;;;5.30;2.17;;;20.90;99.90;;;;;;5014386;28;21176;-77
2023/10/08 07:51:53;;;;;;;4.93;2.20;;;21.00;99.90;;;;;;5031856;28;20622;-77
2023/10/08 07:54:27;;;;;;;6.73;2.60;;;21.10;99.90;;;;;;5031426;28;21286;-77
2023/10/08 07:57:08;;;;;;;4.53;2.57;;;21.20;99.90;;;;;;5036563;28;20668;-80
2023/10/08 07:59:38;;;;;;;4.90;2.30;;;21.30;99.90;;;;;;5033698;28;20643;-80
2023/10/08 08:02:11;;;;;;;8.27;3.60;;;21.30;99.90;;;;;;5046692;28;20589;-80
2023/10/08 08:04:45;;;;;;;6.43;2.90;;;21.40;99.90;;;;;;5030516;28;20589;-80
2023/10/08 08:07:17;;;;;;;5.10;2.50;;;21.50;99.90;;;;;;5036298;28;20637;-79
2023/10/08 08:09:50;;;;;;;4.40;2.33;;;21.70;99.90;;;;;;5022758;28;20621;-80
2023/10/08 08:12:21;;;;;;;8.33;2.93;;;21.80;99.90;;;;;;5013195;28;20656;-79
2023/10/08 08:14:48;;;;;;;6.10;2.67;;;22.00;99.90;;;;;;5031167;28;21028;-80
2023/10/08 08:17:18;;;;;;;6.00;3.13;;;22.30;99.90;;;;;;5008187;28;20972;-78
2023/10/08 08:19:47;;;;;;;6.67;3.67;;;22.40;99.90;;;;;;5016800;28;20585;-78
2023/10/08 08:22:23;;;;;;;4.47;2.40;;;22.50;99.90;;;;;;5015123;28;20573;-78
2023/10/08 08:24:53;;;;;;;4.00;2.10;;;22.50;99.90;;;;;;5017407;28;20974;-78
2023/10/08 08:27:23;;;;;;;4.63;2.73;;;22.60;99.90;;;;;;5028222;28;20627;-79
2023/10/08 08:29:55;;;;;;;6.37;2.53;;;22.50;99.90;;;;;;5022507;28;20669;-78
2023/10/08 08:32:21;;;;;;;5.00;2.60;;;22.50;99.90;;;;;;5020502;28;20974;-78
2023/10/08 08:34:50;;;;;;;6.90;2.60;;;22.50;99.90;;;;;;5010695;28;20644;-78
2023/10/08 08:37:16;;;;;;;4.93;2.80;;;22.40;99.90;;;;;;5019845;28;20609;-79
2023/10/08 08:39:42;;;;;;;8.27;3.73;;;22.40;99.90;;;;;;5025113;28;20596;-78
2023/10/08 08:42:10;;;;;;;3.77;2.07;;;22.30;99.90;;;;;;5023468;28;20577;-79
2023/10/08 08:44:39;;;;;;;6.30;3.50;;;22.30;99.90;;;;;;5009001;28;20181;-79
2023/10/08 08:47:06;;;;;;;6.63;3.60;;;22.30;99.90;;;;;;5002923;28;20609;-79
2023/10/08 08:49:37;;;;;;;9.77;3.70;;;22.20;99.90;;;;;;5025309;28;20642;-78
2023/10/08 08:52:04;;;;;;;5.50;3.10;;;22.30;99.90;;;;;;5022109;28;21019;-78
2023/10/08 08:54:32;;;;;;;5.80;3.20;;;22.30;99.90;;;;;;5017326;28;20991;-78
2023/10/08 08:57:04;;;;;;;3.80;2.10;;;22.30;99.90;;;;;;5010209;28;20955;-78
2023/10/08 08:59:30;;;;;;;6.93;2.60;;;22.20;99.90;;;;;;5010797;28;20609;-77
2023/10/08 09:01:59;;;;;;;6.13;2.93;;;22.30;99.90;;;;;;5010565;28;21282;-77
2023/10/08 09:04:30;;;;;;;5.60;2.00;;;22.30;99.90;;;;;;5010588;28;20597;-76
2023/10/08 09:06:57;;;;;;;5.77;2.50;;;22.40;99.90;;;;;;5011943;28;20612;-77
2023/10/08 09:09:30;;;;;;;7.30;3.07;;;22.40;99.90;;;;;;5032223;28;21133;-77
2023/10/08 09:11:57;;;;;;;8.80;3.10;;;22.40;99.90;;;;;;5032308;28;20575;-79
2023/10/08 09:14:29;;;;;;;7.27;3.50;;;22.50;99.90;;;;;;5029841;28;20632;-77
2023/10/08 09:16:55;;;;;;;5.03;2.50;;;22.50;99.90;;;;;;5031440;28;20627;-75
2023/10/08 09:19:24;;;;;;;7.73;3.50;;;22.60;99.90;;;;;;5030236;28;21243;-76
2023/10/08 09:22:11;;;;;;;6.77;3.13;;;22.80;99.90;;;;;;5029939;28;20988;-75
2023/10/08 09:24:38;;;;;;;10.57;3.37;;;23.00;99.90;;;;;;5028154;28;20577;-76
2023/10/08 09:27:14;;;;;;;8.50;4.67;;;23.30;99.90;;;;;;5033604;28;20769;-76
2023/10/08 09:29:40;;;;;;;8.57;3.57;;;23.60;99.90;;;;;;4997128;28;20674;-75
2023/10/08 09:32:09;;;;;;;9.63;4.73;;;23.80;99.90;;;;;;5020906;28;20589;-75
2023/10/08 09:34:36;;;;;;;9.07;3.50;;;23.90;99.90;;;;;;5010053;28;20744;-75
2023/10/08 09:37:02;;;;;;;8.00;2.97;;;24.10;99.90;;;;;;5011356;28;20981;-76
2023/10/08 09:39:33;;;;;;;10.17;3.40;;;24.20;99.90;;;;;;5011301;28;20667;-76
2023/10/08 09:42:02;;;;;;;11.70;3.47;;;24.30;99.90;;;;;;5026703;28;20685;-76
2023/10/08 09:44:30;;;;;;;7.00;3.80;;;24.40;99.90;;;;;;5026618;28;20589;-76
2023/10/08 09:47:06;;;;;;;6.47;3.50;;;24.40;99.90;;;;;;5012949;28;20593;-76
2023/10/08 09:49:43;;;;;;;8.07;4.00;;;24.40;99.90;;;;;;5026314;28;20592;-76
2023/10/08 09:52:12;;;;;;;4.90;3.10;;;24.40;99.90;;;;;;5000880;28;20584;-76
2023/10/08 09:54:51;;;;;;;8.87;3.87;;;24.40;99.90;;;;;;5012103;28;20636;-75
2023/10/08 09:57:18;;;;;;;9.03;3.80;;;24.30;99.90;;;;;;5018618;28;20640;-75
2023/10/08 09:59:45;;;;;;;6.87;3.33;;;24.30;99.90;;;;;;5019207;28;20588;-75
2023/10/08 10:02:11;;;;;;;8.60;4.30;;;24.20;99.90;;;;;;5015758;28;20595;-75
2023/10/08 10:04:43;;;;;;;8.50;3.57;;;24.30;99.90;;;;;;5017482;28;20668;-76
2023/10/08 10:07:12;;;;;;;11.13;4.13;;;24.30;99.90;;;;;;5013294;28;20751;-75
2023/10/08 10:09:39;;;;;;;9.27;3.90;;;24.30;99.90;;;;;;5013806;28;21027;-75
2023/10/08 10:12:09;;;;;;;6.67;4.10;;;24.30;99.90;;;;;;5013790;28;20664;-75
2023/10/08 10:14:45;;;;;;;10.30;3.80;;;24.30;99.90;;;;;;5030134;28;20682;-76
2023/10/08 10:17:20;;;;;;;6.77;2.87;;;24.30;99.90;;;;;;5013569;28;20981;-76
2023/10/08 10:19:53;;;;;;;7.17;3.70;;;24.40;99.90;;;;;;5014918;28;20553;-76
2023/10/08 10:22:32;;;;;;;7.10;2.97;;;24.50;99.90;;;;;;5013397;28;20565;-76
2023/10/08 10:25:03;;;;;;;9.90;4.23;;;24.50;99.90;;;;;;5014988;28;20990;-76
2023/10/08 10:27:30;;;;;;;5.90;3.00;;;24.60;99.90;;;;;;5014664;28;20692;-76
2023/10/08 10:30:08;;;;;;;7.43;3.60;;;24.70;99.90;;;;;;5013585;28;21159;-76
2023/10/08 10:32:37;;;;;;;9.00;4.20;;;24.70;99.90;;;;;;5013521;28;20990;-76
2023/10/08 10:35:05;;;;;;;8.00;3.63;;;24.70;99.90;;;;;;5013740;28;20664;-76
2023/10/08 10:37:42;;;;;;;8.53;3.97;;;24.80;99.90;;;;;;5014638;28;20589;-76
2023/10/08 10:40:14;;;;;;;13.10;4.37;;;24.90;99.90;;;;;;5037246;28;20602;-75
2023/10/08 10:42:43;;;;;;;10.40;3.60;;;25.10;99.90;;;;;;5034994;28;20934;-76
2023/10/08 10:48:11;;;;;;;11.97;4.60;;;25.30;99.90;;;;;;5026273;28;20584;-76
2023/10/08 10:53:27;;;;;;;11.63;4.90;;;25.50;99.90;;;;;;5013061;28;20632;-76
2023/10/08 10:56:09;;;;;;;6.07;3.60;;;25.50;99.90;;;;;;5014936;28;20699;-74
2023/10/08 10:58:39;;;;;;;9.90;4.67;;;25.60;99.90;;;;;;5016275;28;20588;-74
2023/10/08 11:01:21;;;;;;;11.10;4.47;;;25.60;99.90;;;;;;5032323;28;20652;-74
2023/10/08 11:03:52;;;;;;;8.87;4.03;;;25.70;99.90;;;;;;5032256;28;20584;-73
2023/10/08 11:06:25;;;;;;;10.40;5.13;;;25.70;99.90;;;;;;5031973;28;20722;-73
2023/10/08 11:08:52;;;;;;;6.60;4.60;;;25.80;99.90;;;;;;5032830;28;20642;-73
2023/10/08 11:11:28;;;;;;;14.27;4.80;;;25.80;99.90;;;;;;5027385;28;20673;-74
2023/10/08 11:14:03;;;;;;;4.70;3.53;;;25.90;99.90;;;;;;5033184;28;20632;-74
2023/10/08 11:16:31;;;;;;;7.20;4.57;;;26.10;99.90;;;;;;5031498;28;20643;-73
2023/10/08 11:19:06;;;;;;;7.00;4.30;;;26.10;99.90;;;;;;5031654;28;20946;-74
2023/10/08 11:21:33;;;;;;;9.70;4.10;;;26.30;99.90;;;;;;5033009;28;20981;-73
2023/10/08 11:24:01;;;;;;;8.70;3.83;;;26.30;99.90;;;;;;5033158;28;20655;-74
2023/10/08 11:26:38;;;;;;;9.50;6.03;;;26.40;99.90;;;;;;5015244;28;20615;-73
2023/10/08 11:29:05;;;;;;;10.23;4.67;;;26.30;99.90;;;;;;5032011;28;20949;-74
2023/10/08 11:31:34;;;;;;;11.07;4.70;;;26.30;99.90;;;;;;4998645;28;20688;-74
2023/10/08 11:34:08;;;;;;;8.47;4.67;;;26.30;99.90;;;;;;5032729;28;20642;-74
2023/10/08 11:36:48;;;;;;;8.90;4.63;;;26.30;99.90;;;;;;5031185;28;20608;-74
2023/10/08 11:39:21;;;;;;;9.30;5.43;;;26.30;99.90;;;;;;5031487;28;20670;-74
2023/10/08 11:42:03;;;;;;;10.13;4.87;;;26.30;99.90;;;;;;5014798;28;20585;-74
2023/10/08 11:44:36;;;;;;;12.73;5.50;;;26.20;99.90;;;;;;5032623;28;20595;-74
2023/10/08 11:47:12;;;;;;;7.50;5.57;;;26.10;99.90;;;;;;5030259;28;20620;-74
2023/10/08 11:49:54;;;;;;;12.63;5.80;;;26.10;99.90;;;;;;5015898;28;20604;-74
2023/10/08 11:52:23;;;;;;;8.37;5.57;;;26.10;99.90;;;;;;4998123;28;20602;-74
2023/10/08 11:54:52;;;;;;;9.47;5.10;;;26.10;99.90;;;;;;5031162;28;20636;-74
2023/10/08 11:57:21;;;;;;;11.33;4.53;;;26.10;99.90;;;;;;5029612;28;20719;-74
2023/10/08 11:59:47;;;;;;;13.23;7.63;;;26.10;99.90;;;;;;5024556;28;20945;-74
2023/10/08 12:02:16;;;;;;;11.13;5.83;;;26.10;99.90;;;;;;5032293;28;20584;-74
2023/10/08 12:04:45;;;;;;;9.80;5.70;;;26.10;99.90;;;;;;5030953;28;20588;-74
2023/10/08 12:07:11;;;;;;;12.70;5.80;;;26.00;99.90;;;;;;5030421;28;20643;-74
2023/10/08 12:09:40;;;;;;;9.47;4.90;;;26.00;99.90;;;;;;5030245;28;20588;-74
2023/10/08 12:12:13;;;;;;;12.70;5.40;;;26.00;99.90;;;;;;5024212;28;20653;-74
2023/10/08 12:14:39;;;;;;;11.77;5.20;;;25.90;99.90;;;;;;5032220;28;20632;-74
2023/10/08 12:17:39;;;;;;;12.30;6.40;;;25.90;99.90;;;;;;5033866;28;21213;-74
2023/10/08 12:20:22;;;;;;;12.70;6.00;;;25.90;99.90;;;;;;5033316;28;20261;-74
2023/10/08 12:23:11;;;;;;;10.63;7.17;;;25.80;99.90;;;;;;5008404;28;20665;-74
2023/10/08 12:25:55;;;;;;;10.23;5.77;;;25.80;99.90;;;;;;5017358;28;20612;-74
2023/10/08 12:29:19;;;;;;;9.83;6.37;;;25.70;99.90;;;;;;5032702;28;20580;-74
2023/10/08 12:32:05;;;;;;;10.53;6.73;;;25.50;99.90;;;;;;5007883;28;20596;-74
2023/10/08 12:34:38;;;;;;;10.30;6.93;;;25.50;99.90;;;;;;5016829;28;20647;-74
2023/10/08 12:37:07;;;;;;;14.77;7.10;;;25.30;99.90;;;;;;5031693;28;20651;-74
2023/10/08 12:40:11;;;;;;;11.40;6.33;;;25.20;99.90;;;;;;5020131;28;20652;-74
2023/10/08 12:42:42;;;;;;;11.67;6.70;;;25.10;99.90;;;;;;5031751;28;20600;-74
2023/10/08 12:45:12;;;;;;;9.70;5.90;;;25.00;99.90;;;;;;5031773;28;20584;-74
2023/10/08 12:47:38;;;;;;;12.13;7.80;;;24.90;99.90;;;;;;5031632;28;20591;-74
2023/10/08 12:50:42;;;;;;;11.70;7.03;;;24.90;99.90;;;;;;5024206;28;20581;-73
2023/10/08 12:54:03;;;;;;;10.43;6.27;;;24.80;99.90;;;;;;5031666;28;20592;-74
2023/10/08 12:56:15;;;;;;;10.40;6.60;;;24.70;99.90;;;;;;4999179;28;20702;-74
2023/10/08 12:58:44;;;;;;;10.80;6.90;;;24.70;99.90;;;;;;5022000;28;20587;-74
2023/10/08 13:01:14;;;;;;;10.00;6.70;;;24.70;99.90;;;;;;5030033;28;20584;-74
2023/10/08 13:03:47;;;;;;;12.00;7.03;;;24.60;99.90;;;;;;5030909;28;20592;-73
2023/10/08 13:06:22;;;;;;;13.80;7.10;;;24.50;99.90;;;;;;5031226;28;20623;-73
2023/10/08 13:08:54;;;;;;;11.43;7.40;;;24.40;99.90;;;;;;5029566;28;20580;-74
2023/10/08 13:11:24;;;;;;;14.63;7.93;;;24.30;99.90;;;;;;5022389;28;20592;-75
2023/10/08 13:13:56;;;;;;;10.77;7.63;;;24.30;99.90;;;;;;5018391;28;20672;-75
2023/10/08 13:16:37;;;;;;;14.63;8.10;;;24.20;99.90;;;;;;5010721;28;20624;-73
2023/10/08 13:19:08;;;;;;;9.60;7.17;;;24.00;99.90;;;;;;5029697;28;20595;-74
2023/10/08 13:21:36;;;;;;;11.37;8.20;;;23.90;99.90;;;;;;5012793;28;20592;-74
2023/10/08 13:24:03;;;;;;;10.07;7.40;;;23.80;99.90;;;;;;5029796;28;20620;-74
2023/10/08 13:26:32;;;;;;;12.03;6.30;;;23.80;99.90;;;;;;5013128;28;20631;-74
2023/10/08 13:28:58;;;;;;;11.90;7.07;;;23.90;99.90;;;;;;5030610;28;20612;-74
2023/10/08 13:31:29;;;;;;;10.43;6.10;;;24.00;99.90;;;;;;5030687;28;20599;-73
2023/10/08 13:34:08;;;;;;;14.30;6.90;;;24.00;99.90;;;;;;5013091;28;20592;-74
2023/10/08 13:36:37;;;;;;;10.43;7.10;;;24.10;99.90;;;;;;5029749;28;20623;-74
2023/10/08 13:39:09;;;;;;;12.80;7.00;;;24.10;99.90;;;;;;5013159;28;20595;-74
2023/10/08 13:41:38;;;;;;;10.93;7.00;;;24.10;99.90;;;;;;5013756;28;20695;-77
2023/10/08 13:44:05;;;;;;;9.90;7.40;;;24.20;99.90;;;;;;5014549;28;20584;-77
2023/10/08 13:46:36;;;;;;;10.93;7.87;;;24.20;99.90;;;;;;5016082;28;20628;-77
2023/10/08 13:49:02;;;;;;;12.07;7.30;;;24.20;99.90;;;;;;5012707;28;20603;-76
2023/10/08 13:51:28;;;;;;;11.47;7.47;;;24.10;99.90;;;;;;5012725;28;21173;-77
2023/10/08 13:53:59;;;;;;;9.53;7.10;;;24.10;99.90;;;;;;5013152;28;20599;-77
2023/10/08 13:56:30;;;;;;;18.83;9.07;;;24.10;99.90;;;;;;5019671;28;20563;-77
2023/10/08 13:59:13;;;;;;;14.00;7.50;;;24.10;99.90;;;;;;5024156;28;20642;-77
2023/10/08 14:01:43;;;;;;;13.33;7.47;;;24.10;99.90;;;;;;5012884;28;20592;-77
2023/10/08 14:04:09;;;;;;;14.37;7.73;;;24.10;99.90;;;;;;5014795;28;20692;-77
2023/10/08 14:06:38;;;;;;;10.70;7.63;;;24.10;99.90;;;;;;5003886;28;20625;-75